sensor_id;sensor_type;location;lat;lon;timestamp;temperature;humidity
14234;DHT22;36077;53.824;9.950;2022-10-16T15:51:12;16.30;99.90
14234;DHT22;36077;53.824;9.950;2022-10-16T15:53:39;16.10;99.90
14234;DHT22;36077;53.824;9.950;2022-10-16T15:56:07;16.00;99.90
14234;DHT22;36077;53.824;9.950;2022-10-16T15:58:35;15.80;99.90
14234;DHT22;36077;53.824;9.950;2022-10-16T16:01:03;15.60;99.90
14234;DHT22;36077;53.824;9.950;2022-10-16T16:03:30;15.50;99.90
14234;DHT22;36077;53.824;9.950;2022-10-16T16:05:58;15.40;99.90
14234;DHT22;36077;53.824;9.950;2022-10-16T16:08:26;15.20;99.90
14234;DHT22;36077;53.824;9.950;2022-10-16T16:10:59;15.10;99.90
14234;DHT22;36077;53.824;9.950;2022-10-16T16:13:25;15.00;99.90
14234;DHT22;36077;53.824;9.950;2022-10-16T16:15:52;14.90;99.90
14234;DHT22;36077;53.824;9.950;2022-10-16T16:18:19;14.80;99.90
14234;DHT22;36077;53.824;9.950;2022-10-16T16:20:46;14.70;99.90
14234;DHT22;36077;53.824;9.950;2022-10-16T16:23:13;14.60;99.90
14234;DHT22;36077;53.824;9.950;2022-10-16T16:25:41;14.50;99.90
14234;DHT22;36077;53.824;9.950;2022-10-16T16:28:09;14.40;99.90
14234;DHT22;36077;53.824;9.950;2022-10-16T16:30:39;14.30;99.90
14234;DHT22;36077;53.824;9.950;2022-10-16T16:33:06;14.20;99.90
14234;DHT22;36077;53.824;9.950;2022-10-16T16:35:33;14.10;99.90
14234;DHT22;36077;53.824;9.950;2022-10-16T16:38:00;14.00;99.90
14234;DHT22;36077;53.824;9.950;2022-10-16T16:40:28;13.80;99.90
14234;DHT22;36077;53.824;9.950;2022-10-16T16:42:56;13.70;99.90
14234;DHT22;36077;53.824;9.950;2022-10-16T16:45:23;13.60;99.90
14234;DHT22;36077;53.824;9.950;2022-10-16T16:47:51;13.50;99.90
14234;DHT22;36077;53.824;9.950;2022-10-16T16:50:18;13.40;99.90
14234;DHT22;36077;53.824;9.950;2022-10-16T16:52:44;13.30;99.90
14234;DHT22;36077;53.824;9.950;2022-10-16T16:55:11;13.20;99.90
14234;DHT22;36077;53.824;9.950;2022-10-16T16:57:38;13.10;99.90
14234;DHT22;36077;53.824;9.950;2022-10-16T17:00:07;13.00;99.90
14234;DHT22;36077;53.824;9.950;2022-10-16T17:02:34;12.90;99.90
14234;DHT22;36077;53.824;9.950;2022-10-16T17:05:01;12.90;99.90
14234;DHT22;36077;53.824;9.950;2022-10-16T17:07:31;12.80;99.90
14234;DHT22;36077;53.824;9.950;2022-10-16T17:09:58;12.70;99.90
14234;DHT22;36077;53.824;9.950;2022-10-16T17:12:24;12.60;99.90
14234;DHT22;36077;53.824;9.950;2022-10-16T17:14:51;12.50;99.90
14234;DHT22;36077;53.824;9.950;2022-10-16T17:17:19;12.40;99.90
14234;DHT22;36077;53.824;9.950;2022-10-16T17:19:48;12.40;99.90
14234;DHT22;36077;53.824;9.950;2022-10-16T17:22:15;12.20;99.90
14234;DHT22;36077;53.824;9.950;2022-10-16T17:24:42;12.20;99.90
14234;DHT22;36077;53.824;9.950;2022-10-16T17:27:09;12.10;99.90
14234;DHT22;36077;53.824;9.950;2022-10-16T17:29:37;12.10;99.90
14234;DHT22;36077;53.824;9.950;2022-10-16T17:32:03;12.10;99.90
14234;DHT22;36077;53.824;9.950;2022-10-16T17:34:32;12.00;99.90
14234;DHT22;36077;53.824;9.950;2022-10-16T17:37:00;12.00;99.90
14234;DHT22;36077;53.824;9.950;2022-10-16T17:39:26;11.90;99.90
14234;DHT22;36077;53.824;9.950;2022-10-16T17:41:53;11.90;99.90
14234;DHT22;36077;53.824;9.950;2022-10-16T17:44:20;11.80;99.90
14234;DHT22;36077;53.824;9.950;2022-10-16T17:46:49;11.70;99.90
14234;DHT22;36077;53.824;9.950;2022-10-16T17:49:16;11.70;99.90
14234;DHT22;36077;53.824;9.950;2022-10-16T17:51:45;11.60;99.90
14234;DHT22;36077;53.824;9.950;2022-10-16T17:54:12;11.50;99.90
14234;DHT22;36077;53.824;9.950;2022-10-16T17:56:40;11.40;99.90
14234;DHT22;36077;53.824;9.950;2022-10-16T17:59:07;11.40;99.90
14234;DHT22;36077;53.824;9.950;2022-10-16T18:01:36;11.30;99.90
14234;DHT22;36077;53.824;9.950;2022-10-16T18:04:06;11.20;99.90
14234;DHT22;36077;53.824;9.950;2022-10-16T18:06:34;11.20;99.90
14234;DHT22;36077;53.824;9.950;2022-10-16T18:09:03;11.10;99.90
14234;DHT22;36077;53.824;9.950;2022-10-16T18:11:35;11.00;99.90
14234;DHT22;36077;53.824;9.950;2022-10-16T18:14:05;11.00;99.90
14234;DHT22;36077;53.824;9.950;2022-10-16T18:16:32;11.00;99.90
14234;DHT22;36077;53.824;9.950;2022-10-16T18:19:01;10.90;99.90
14234;DHT22;36077;53.824;9.950;2022-10-16T18:21:27;10.90;99.90
14234;DHT22;36077;53.824;9.950;2022-10-16T18:23:59;10.80;99.90
14234;DHT22;36077;53.824;9.950;2022-10-16T18:26:35;10.80;99.90
14234;DHT22;36077;53.824;9.950;2022-10-16T18:29:04;10.80;99.90
14234;DHT22;36077;53.824;9.950;2022-10-16T18:31:31;10.70;99.90
14234;DHT22;36077;53.824;9.950;2022-10-16T18:33:58;10.60;99.90
14234;DHT22;36077;53.824;9.950;2022-10-16T18:36:29;10.60;99.90
14234;DHT22;36077;53.824;9.950;2022-10-16T18:39:02;10.50;99.90
14234;DHT22;36077;53.824;9.950;2022-10-16T18:41:35;10.50;99.90
14234;DHT22;36077;53.824;9.950;2022-10-16T18:44:06;10.40;99.90
14234;DHT22;36077;53.824;9.950;2022-10-16T18:46:35;10.40;99.90
14234;DHT22;36077;53.824;9.950;2022-10-16T18:49:03;10.40;99.90
14234;DHT22;36077;53.824;9.950;2022-10-16T18:51:31;10.30;99.90
14234;DHT22;36077;53.824;9.950;2022-10-16T18:54:00;10.30;99.90
14234;DHT22;36077;53.824;9.950;2022-10-16T18:56:29;10.20;99.90
14234;DHT22;36077;53.824;9.950;2022-10-16T18:59:00;10.20;99.90
14234;DHT22;36077;53.824;9.950;2022-10-16T19:01:30;10.10;99.90
14234;DHT22;36077;53.824;9.950;2022-10-16T19:04:02;10.10;99.90
14234;DHT22;36077;53.824;9.950;2022-10-16T19:06:34;10.10;99.90
14234;DHT22;36077;53.824;9.950;2022-10-16T19:09:05;10.10;99.90
14234;DHT22;36077;53.824;9.950;2022-10-16T19:11:47;10.10;99.90
14234;DHT22;36077;53.824;9.950;2022-10-16T19:14:16;10.00;99.90
14234;DHT22;36077;53.824;9.950;2022-10-16T19:16:45;10.00;99.90
14234;DHT22;36077;53.824;9.950;2022-10-16T19:19:15;9.90;99.90
14234;DHT22;36077;53.824;9.950;2022-10-16T19:21:44;9.90;99.90
14234;DHT22;36077;53.824;9.950;2022-10-16T19:24:13;9.90;99.90
14234;DHT22;36077;53.824;9.950;2022-10-16T19:26:47;9.80;99.90
14234;DHT22;36077;53.824;9.950;2022-10-16T19:29:18;9.80;99.90
14234;DHT22;36077;53.824;9.950;2022-10-16T19:31:47;9.70;99.90
14234;DHT22;36077;53.824;9.950;2022-10-16T19:34:20;9.70;99.90
14234;DHT22;36077;53.824;9.950;2022-10-16T19:36:52;9.70;99.90
14234;DHT22;36077;53.824;9.950;2022-10-16T19:39:24;9.70;99.90
14234;DHT22;36077;53.824;9.950;2022-10-16T19:41:53;9.60;99.90
14234;DHT22;36077;53.824;9.950;2022-10-16T19:44:21;9.70;99.90
14234;DHT22;36077;53.824;9.950;2022-10-16T19:46:51;9.60;99.90
14234;DHT22;36077;53.824;9.950;2022-10-16T19:49:20;9.70;99.90
14234;DHT22;36077;53.824;9.950;2022-10-16T19:51:53;9.70;99.90
14234;DHT22;36077;53.824;9.950;2022-10-16T19:54:23;9.70;99.90
14234;DHT22;36077;53.824;9.950;2022-10-16T19:56:51;9.80;99.90
14234;DHT22;36077;53.824;9.950;2022-10-16T19:59:27;9.80;99.90
14234;DHT22;36077;53.824;9.950;2022-10-16T20:01:56;9.80;99.90
14234;DHT22;36077;53.824;9.950;2022-10-16T20:04:28;9.70;99.90
14234;DHT22;36077;53.824;9.950;2022-10-16T20:07:09;9.70;99.90
14234;DHT22;36077;53.824;9.950;2022-10-16T20:09:36;9.70;99.90
14234;DHT22;36077;53.824;9.950;2022-10-16T20:12:18;9.70;99.90
14234;DHT22;36077;53.824;9.950;2022-10-16T20:14:47;9.70;99.90
14234;DHT22;36077;53.824;9.950;2022-10-16T20:17:16;9.60;99.90
14234;DHT22;36077;53.824;9.950;2022-10-16T20:19:42;9.60;99.90
14234;DHT22;36077;53.824;9.950;2022-10-16T20:22:09;9.70;99.90
14234;DHT22;36077;53.824;9.950;2022-10-16T20:24:36;9.70;99.90
14234;DHT22;36077;53.824;9.950;2022-10-16T20:27:03;9.70;99.90
14234;DHT22;36077;53.824;9.950;2022-10-16T20:29:30;9.70;99.90
14234;DHT22;36077;53.824;9.950;2022-10-16T20:31:58;9.70;99.90
14234;DHT22;36077;53.824;9.950;2022-10-16T20:34:25;9.70;99.90
14234;DHT22;36077;53.824;9.950;2022-10-16T20:36:51;9.70;99.90
14234;DHT22;36077;53.824;9.950;2022-10-16T20:39:18;9.70;99.90
14234;DHT22;36077;53.824;9.950;2022-10-16T20:41:45;9.70;99.90
14234;DHT22;36077;53.824;9.950;2022-10-16T20:44:12;9.60;99.90
14234;DHT22;36077;53.824;9.950;2022-10-16T20:46:38;9.60;99.90
14234;DHT22;36077;53.824;9.950;2022-10-16T20:49:07;9.60;99.90
14234;DHT22;36077;53.824;9.950;2022-10-16T20:51:34;9.60;99.90
14234;DHT22;36077;53.824;9.950;2022-10-16T20:54:03;9.70;99.90
14234;DHT22;36077;53.824;9.950;2022-10-16T20:56:34;9.70;99.90
14234;DHT22;36077;53.824;9.950;2022-10-16T20:59:04;9.70;99.90
14234;DHT22;36077;53.824;9.950;2022-10-16T21:01:31;9.70;99.90
14234;DHT22;36077;53.824;9.950;2022-10-16T21:04:01;9.80;99.90
14234;DHT22;36077;53.824;9.950;2022-10-16T21:06:31;9.80;99.90
14234;DHT22;36077;53.824;9.950;2022-10-16T21:08:58;9.80;99.90
14234;DHT22;36077;53.824;9.950;2022-10-16T21:11:28;9.90;99.90
14234;DHT22;36077;53.824;9.950;2022-10-16T21:13:58;9.90;99.90
14234;DHT22;36077;53.824;9.950;2022-10-16T21:16:25;9.90;99.90
14234;DHT22;36077;53.824;9.950;2022-10-16T21:18:53;10.00;99.90
14234;DHT22;36077;53.824;9.950;2022-10-16T21:21:21;9.90;99.90
14234;DHT22;36077;53.824;9.950;2022-10-16T21:23:50;9.90;99.90
14234;DHT22;36077;53.824;9.950;2022-10-16T21:26:18;9.90;99.90
14234;DHT22;36077;53.824;9.950;2022-10-16T21:28:47;9.90;99.90
14234;DHT22;36077;53.824;9.950;2022-10-16T21:31:16;9.90;99.90
14234;DHT22;36077;53.824;9.950;2022-10-16T21:33:44;9.90;99.90
14234;DHT22;36077;53.824;9.950;2022-10-16T21:36:12;9.90;99.90
14234;DHT22;36077;53.824;9.950;2022-10-16T21:38:39;9.80;99.90
14234;DHT22;36077;53.824;9.950;2022-10-16T21:41:19;9.80;99.90
14234;DHT22;36077;53.824;9.950;2022-10-16T21:43:46;9.80;99.90
14234;DHT22;36077;53.824;9.950;2022-10-16T21:46:13;9.70;99.90
14234;DHT22;36077;53.824;9.950;2022-10-16T21:48:40;9.70;99.90
14234;DHT22;36077;53.824;9.950;2022-10-16T21:51:08;9.80;99.90
14234;DHT22;36077;53.824;9.950;2022-10-16T21:53:35;9.80;99.90
14234;DHT22;36077;53.824;9.950;2022-10-16T21:56:02;9.80;99.90
14234;DHT22;36077;53.824;9.950;2022-10-16T21:58:31;9.80;99.90
14234;DHT22;36077;53.824;9.950;2022-10-16T22:00:58;9.80;99.90
14234;DHT22;36077;53.824;9.950;2022-10-16T22:03:25;9.80;99.90
14234;DHT22;36077;53.824;9.950;2022-10-16T22:05:51;9.80;99.90
14234;DHT22;36077;53.824;9.950;2022-10-16T22:08:18;9.90;99.90
14234;DHT22;36077;53.824;9.950;2022-10-16T22:10:45;10.00;99.90
14234;DHT22;36077;53.824;9.950;2022-10-16T22:13:12;10.00;99.90
14234;DHT22;36077;53.824;9.950;2022-10-16T22:15:47;10.10;99.90
14234;DHT22;36077;53.824;9.950;2022-10-16T22:18:16;10.10;99.90
14234;DHT22;36077;53.824;9.950;2022-10-16T22:20:44;10.20;99.90
14234;DHT22;36077;53.824;9.950;2022-10-16T22:23:10;10.20;99.90
14234;DHT22;36077;53.824;9.950;2022-10-16T22:25:37;10.20;99.90
14234;DHT22;36077;53.824;9.950;2022-10-16T22:28:04;10.30;99.90
14234;DHT22;36077;53.824;9.950;2022-10-16T22:30:33;10.30;99.90
14234;DHT22;36077;53.824;9.950;2022-10-16T22:33:02;10.30;99.90
14234;DHT22;36077;53.824;9.950;2022-10-16T22:35:29;10.40;99.90
14234;DHT22;36077;53.824;9.950;2022-10-16T22:37:55;10.30;99.90
14234;DHT22;36077;53.824;9.950;2022-10-16T22:40:22;10.40;99.90
14234;DHT22;36077;53.824;9.950;2022-10-16T22:42:49;10.40;99.90
14234;DHT22;36077;53.824;9.950;2022-10-16T22:45:19;10.40;99.90
14234;DHT22;36077;53.824;9.950;2022-10-16T22:47:46;10.40;99.90
14234;DHT22;36077;53.824;9.950;2022-10-16T22:50:14;10.50;99.90
14234;DHT22;36077;53.824;9.950;2022-10-16T22:52:41;10.50;99.90
14234;DHT22;36077;53.824;9.950;2022-10-16T22:55:08;10.50;99.90
14234;DHT22;36077;53.824;9.950;2022-10-16T22:57:35;10.50;99.90
14234;DHT22;36077;53.824;9.950;2022-10-16T23:00:02;10.50;99.90
14234;DHT22;36077;53.824;9.950;2022-10-16T23:02:28;10.60;99.90
14234;DHT22;36077;53.824;9.950;2022-10-16T23:04:55;10.60;99.90
14234;DHT22;36077;53.824;9.950;2022-10-16T23:07:23;10.60;99.90
14234;DHT22;36077;53.824;9.950;2022-10-16T23:09:50;10.60;99.90
14234;DHT22;36077;53.824;9.950;2022-10-16T23:12:18;10.70;99.90
14234;DHT22;36077;53.824;9.950;2022-10-16T23:14:46;10.60;99.90
14234;DHT22;36077;53.824;9.950;2022-10-16T23:17:13;10.70;99.90
14234;DHT22;36077;53.824;9.950;2022-10-16T23:19:39;10.70;99.90
14234;DHT22;36077;53.824;9.950;2022-10-16T23:22:06;10.70;99.90
14234;DHT22;36077;53.824;9.950;2022-10-16T23:24:34;10.70;99.90
14234;DHT22;36077;53.824;9.950;2022-10-16T23:27:01;10.80;99.90
14234;DHT22;36077;53.824;9.950;2022-10-16T23:29:28;10.80;99.90
14234;DHT22;36077;53.824;9.950;2022-10-16T23:31:55;10.90;99.90
14234;DHT22;36077;53.824;9.950;2022-10-16T23:34:22;10.90;99.90
14234;DHT22;36077;53.824;9.950;2022-10-16T23:36:50;10.90;99.90
14234;DHT22;36077;53.824;9.950;2022-10-16T23:39:16;11.00;99.90
14234;DHT22;36077;53.824;9.950;2022-10-16T23:41:44;11.00;99.90
14234;DHT22;36077;53.824;9.950;2022-10-16T23:44:11;11.00;99.90
14234;DHT22;36077;53.824;9.950;2022-10-16T23:46:38;11.10;99.90
14234;DHT22;36077;53.824;9.950;2022-10-16T23:49:05;11.10;99.90
14234;DHT22;36077;53.824;9.950;2022-10-16T23:51:31;11.10;99.90
14234;DHT22;36077;53.824;9.950;2022-10-16T23:53:58;11.10;99.90
14234;DHT22;36077;53.824;9.950;2022-10-16T23:56:25;11.10;99.90
14234;DHT22;36077;53.824;9.950;2022-10-16T23:58:53;11.20;99.90
